Huvudsida
METAR-TAF:

METAR-TAF

Flygplatser :

Göteborg-Landvetter Airport

Göteborg-Landvetter, Sverige

latitud: 57-40N, longitud: 012-18E, höjd: 169 m

Aktuellt väderrapport

Denna rapport gjordes för 30 minuter sedan, klockan 13:50 UTC
Vind 10 kt från väst/nordväst, varierande mellan väst/sydväst och nord/nordväst
Temperatur 9°C
Fuktighet 40%
Tryck 1020 hPa
Sikt 10 km eller mer
Inga moln under 1 500 m eller inga cumulonimbus

METAR: ESGG 091350Z 30010KT 250V330 CAVOK 09/M04 Q1020

Tid: 16:20 (14:20 UTC)

Väderprognos

Denna rapport gjordes för 2 timmar och 50 minuter sedan, klockan 11:30 UTC
Prognos gäller från 09 kl. 12 UTC till 10 kl. 12 UTC
Vind 12 kt från nordväst
Sikt 10 km eller mer
Inga moln under 1 500 m eller inga cumulonimbus
Blir
från 09 kl. 20 UTC till 09 kl. 22 UTC
Vind 2 kt varierande vindriktning

TAF: ESGG 091130Z 0912/1012 32012KT CAVOK BECMG 0920/0922 VRB02KT

Aktuella väderrapporter och prognoser från 4000 flygplatser (METAR- och TAF-rapporter).

De tillgängliga stationerna syns som gula och röda prickar på kartan.

För musen över prickarna för att se namnen på stationerna.

Klicka sedan för att få väderrapporter och prognoser.

För att ändra kartan: Klicka på de gröna knapparna med ett svart kors på för att zooma in; den gröna knappen med ett streck på för att zooma ut; eller på de gröna pilarna för angränsande kartor.


METAR-TAF: